Time;durP1;ratioP1;P1;durP2;ratioP2;P2;SDS_P1;SDS_P2;PMS_P1;PMS_P2;Temp;Humidity;BMP_temperature;BMP_pressure;BME280_temperature;BME280_humidity;BME280_pressure;Samples;Min_cycle;Max_cycle;Signal;HPM_P1;HPM_P2
2024/03/16 00:00:22;;;;;;;0.80;0.60;;;9.50;99.90;;;;;;5012089;28;20608;-74
2024/03/16 00:02:49;;;;;;;1.10;0.80;;;9.50;99.90;;;;;;5034815;28;20612;-74
2024/03/16 00:05:16;;;;;;;1.50;0.80;;;9.50;99.90;;;;;;5107930;27;20611;-75
2024/03/16 00:07:43;;;;;;;1.33;0.50;;;9.50;99.90;;;;;;5058789;27;20616;-75
2024/03/16 00:10:10;;;;;;;1.50;0.70;;;9.50;99.90;;;;;;5020365;28;20649;-75
2024/03/16 00:12:37;;;;;;;1.17;0.70;;;9.40;99.90;;;;;;5043249;28;20669;-75
2024/03/16 00:15:04;;;;;;;0.50;0.50;;;9.50;99.90;;;;;;5036191;28;20629;-75
2024/03/16 00:17:31;;;;;;;0.83;0.70;;;9.50;99.90;;;;;;5044831;28;20722;-75
2024/03/16 00:19:58;;;;;;;0.93;0.83;;;9.50;99.90;;;;;;5043845;27;20626;-75
2024/03/16 00:22:26;;;;;;;0.87;0.63;;;9.50;99.90;;;;;;5031810;28;20629;-75
2024/03/16 00:24:52;;;;;;;0.53;0.50;;;9.60;99.90;;;;;;5036240;27;21270;-75
2024/03/16 00:27:19;;;;;;;0.57;0.57;;;9.50;99.90;;;;;;5026905;28;20616;-75
2024/03/16 00:29:46;;;;;;;1.43;0.60;;;9.50;99.90;;;;;;5037965;28;21104;-75
2024/03/16 00:32:12;;;;;;;0.80;0.80;;;9.40;99.90;;;;;;5040939;28;20637;-75
2024/03/16 00:34:39;;;;;;;1.70;0.60;;;9.40;99.90;;;;;;5050398;28;21194;-75
2024/03/16 00:37:06;;;;;;;0.60;0.50;;;9.30;99.90;;;;;;5022729;28;20718;-76
2024/03/16 00:39:33;;;;;;;1.50;0.73;;;9.30;99.90;;;;;;5020649;28;20629;-75
2024/03/16 00:42:00;;;;;;;0.57;0.50;;;9.20;99.90;;;;;;5028437;28;21183;-75
2024/03/16 00:44:27;;;;;;;0.70;0.40;;;9.20;99.90;;;;;;5027662;28;20624;-76
2024/03/16 00:46:54;;;;;;;0.63;0.50;;;9.20;99.90;;;;;;5032624;28;20943;-75
2024/03/16 00:49:21;;;;;;;2.10;0.60;;;9.30;99.90;;;;;;5021967;28;20654;-75
2024/03/16 00:51:48;;;;;;;0.50;0.50;;;9.20;99.90;;;;;;5027130;28;20626;-75
2024/03/16 00:54:15;;;;;;;0.53;0.50;;;9.10;99.90;;;;;;5025247;28;21101;-75
2024/03/16 00:56:43;;;;;;;0.60;0.60;;;9.20;99.90;;;;;;5025819;28;20749;-75
2024/03/16 00:59:10;;;;;;;2.77;0.60;;;9.10;99.90;;;;;;5028435;28;20661;-75
2024/03/16 01:01:37;;;;;;;0.50;0.50;;;9.10;99.90;;;;;;5009933;28;20619;-76
2024/03/16 01:04:05;;;;;;;1.20;0.67;;;9.10;99.90;;;;;;5101130;27;20623;-76
2024/03/16 01:06:33;;;;;;;2.90;0.60;;;9.00;99.90;;;;;;5010039;28;20737;-74
2024/03/16 01:09:01;;;;;;;0.60;0.53;;;8.90;99.90;;;;;;5014349;28;20652;-74
2024/03/16 01:11:29;;;;;;;0.50;0.50;;;9.00;99.90;;;;;;5026692;27;20612;-76
2024/03/16 01:13:57;;;;;;;0.73;0.60;;;9.00;99.90;;;;;;5027125;27;20627;-76
2024/03/16 01:16:25;;;;;;;1.00;0.63;;;9.10;99.90;;;;;;5002929;28;20727;-75
2024/03/16 01:18:51;;;;;;;0.70;0.70;;;8.90;99.90;;;;;;5018947;28;20635;-74
2024/03/16 01:21:19;;;;;;;0.63;0.60;;;8.90;99.90;;;;;;5021383;28;20628;-74
2024/03/16 01:23:46;;;;;;;0.73;0.50;;;9.00;99.90;;;;;;5014757;28;21174;-76
2024/03/16 01:26:13;;;;;;;0.70;0.63;;;8.90;99.90;;;;;;5098714;27;20726;-76
2024/03/16 01:28:40;;;;;;;0.50;0.50;;;9.00;99.90;;;;;;5101363;27;20647;-76
2024/03/16 01:31:08;;;;;;;0.50;0.50;;;9.00;99.90;;;;;;5014250;28;21250;-75
2024/03/16 01:33:35;;;;;;;0.57;0.50;;;9.00;99.90;;;;;;5021346;28;20668;-75
2024/03/16 01:36:11;;;;;;;0.80;0.50;;;9.00;99.90;;;;;;5028235;27;21006;-77
2024/03/16 01:38:38;;;;;;;0.60;0.50;;;8.90;99.90;;;;;;5031965;27;20632;-74
2024/03/16 01:41:05;;;;;;;0.80;0.63;;;8.90;99.90;;;;;;5016025;27;20619;-75
2024/03/16 01:43:32;;;;;;;1.70;0.80;;;8.90;99.90;;;;;;5017523;28;20675;-75
2024/03/16 01:45:59;;;;;;;2.10;0.73;;;8.90;99.90;;;;;;5084361;28;21001;-75
2024/03/16 01:48:26;;;;;;;0.67;0.47;;;8.90;99.90;;;;;;5018643;28;20720;-75
2024/03/16 01:50:54;;;;;;;2.50;0.60;;;9.00;99.90;;;;;;5017133;28;20648;-75
2024/03/16 01:53:23;;;;;;;0.40;0.30;;;8.90;99.90;;;;;;5020227;28;20615;-74
2024/03/16 01:55:50;;;;;;;0.50;0.37;;;9.00;99.90;;;;;;5019427;28;21215;-75
2024/03/16 01:58:17;;;;;;;3.63;0.50;;;9.00;99.90;;;;;;5015823;28;20720;-75
2024/03/16 02:00:47;;;;;;;2.37;0.70;;;9.00;99.90;;;;;;5039258;27;20703;-75
2024/03/16 02:03:13;;;;;;;0.43;0.43;;;9.00;99.90;;;;;;5021400;28;20624;-75
2024/03/16 02:05:41;;;;;;;0.60;0.60;;;8.80;99.90;;;;;;5015756;28;21016;-75
2024/03/16 02:08:08;;;;;;;0.90;0.80;;;8.80;99.90;;;;;;5104912;27;21073;-75
2024/03/16 02:10:36;;;;;;;0.70;0.50;;;8.70;99.90;;;;;;5017972;28;21231;-75
2024/03/16 02:13:05;;;;;;;0.50;0.47;;;8.80;99.90;;;;;;5001392;28;20959;-75
2024/03/16 02:15:32;;;;;;;0.40;0.40;;;8.80;99.90;;;;;;5021004;28;20620;-75
2024/03/16 02:17:59;;;;;;;0.50;0.50;;;8.80;99.90;;;;;;5019024;28;20616;-74
2024/03/16 02:20:27;;;;;;;0.60;0.50;;;8.80;99.90;;;;;;5104381;27;20660;-74
2024/03/16 02:22:55;;;;;;;0.90;0.63;;;8.80;99.90;;;;;;5100746;27;20629;-75
2024/03/16 02:25:23;;;;;;;0.80;0.60;;;8.70;99.90;;;;;;5015028;28;20620;-75
2024/03/16 02:27:52;;;;;;;2.27;0.70;;;8.80;99.90;;;;;;5099336;27;20627;-75
2024/03/16 02:30:20;;;;;;;0.77;0.77;;;8.80;99.90;;;;;;5101065;27;20705;-75
2024/03/16 02:32:48;;;;;;;1.53;0.50;;;8.80;99.90;;;;;;5103197;27;21072;-75
2024/03/16 02:35:17;;;;;;;0.40;0.40;;;8.70;99.90;;;;;;5020660;28;20743;-75
2024/03/16 02:37:44;;;;;;;0.50;0.50;;;8.70;99.90;;;;;;5027895;28;20694;-74
2024/03/16 02:40:13;;;;;;;1.30;0.80;;;8.80;99.90;;;;;;5016702;28;20626;-75
2024/03/16 02:42:40;;;;;;;1.30;0.50;;;8.70;99.90;;;;;;5105605;27;20684;-75
2024/03/16 02:45:08;;;;;;;3.10;0.50;;;8.70;99.90;;;;;;5049223;27;20623;-75
2024/03/16 02:47:35;;;;;;;0.53;0.40;;;8.80;99.90;;;;;;5124790;27;20602;-75
2024/03/16 02:50:03;;;;;;;0.50;0.40;;;8.90;99.90;;;;;;5079002;28;20682;-75
2024/03/16 02:52:31;;;;;;;0.60;0.60;;;8.90;99.90;;;;;;5003936;27;20718;-75
2024/03/16 02:54:58;;;;;;;1.10;0.70;;;8.90;99.90;;;;;;5058814;27;20667;-75
2024/03/16 02:57:26;;;;;;;0.80;0.60;;;8.80;99.90;;;;;;5036683;27;20968;-75
2024/03/16 02:59:54;;;;;;;1.27;1.20;;;8.70;99.90;;;;;;5104257;27;20611;-75
2024/03/16 03:02:23;;;;;;;0.43;0.40;;;8.70;99.90;;;;;;5109552;27;21287;-75
2024/03/16 03:04:51;;;;;;;1.27;0.60;;;8.70;99.90;;;;;;5100467;27;20984;-75
2024/03/16 03:07:19;;;;;;;1.90;0.77;;;8.80;99.90;;;;;;5015474;28;20623;-75
2024/03/16 03:09:47;;;;;;;0.60;0.50;;;8.80;99.90;;;;;;5101564;27;20644;-74
2024/03/16 03:12:15;;;;;;;0.93;0.50;;;8.90;99.90;;;;;;5016824;28;20998;-75
2024/03/16 03:14:43;;;;;;;0.73;0.40;;;8.80;99.90;;;;;;5058253;28;20623;-75
2024/03/16 03:17:12;;;;;;;0.37;0.20;;;8.70;99.90;;;;;;5051625;28;20945;-75
2024/03/16 03:19:40;;;;;;;1.93;0.57;;;8.70;99.90;;;;;;4998626;28;20628;-75
2024/03/16 03:22:07;;;;;;;0.40;0.33;;;8.80;99.90;;;;;;5023233;28;21010;-74
2024/03/16 03:24:35;;;;;;;2.20;0.80;;;8.80;99.90;;;;;;5042614;28;20627;-75
2024/03/16 03:27:03;;;;;;;0.57;0.57;;;8.80;99.90;;;;;;5031433;28;20642;-75
2024/03/16 03:29:31;;;;;;;0.50;0.40;;;8.80;99.90;;;;;;5010179;28;21062;-74
2024/03/16 03:31:59;;;;;;;0.30;0.30;;;8.70;99.90;;;;;;5007784;28;20730;-75
2024/03/16 03:34:27;;;;;;;0.40;0.40;;;8.80;99.90;;;;;;5007234;28;20632;-75
2024/03/16 03:36:54;;;;;;;1.20;0.70;;;8.80;99.90;;;;;;5029728;28;21201;-74
2024/03/16 03:39:24;;;;;;;0.70;0.50;;;8.70;99.90;;;;;;5029447;28;20637;-74
2024/03/16 03:41:52;;;;;;;1.13;0.80;;;8.80;99.90;;;;;;5012915;28;21021;-75
2024/03/16 03:44:23;;;;;;;1.07;0.67;;;8.70;99.90;;;;;;5015102;28;20966;-74
2024/03/16 03:46:51;;;;;;;2.30;0.40;;;8.80;99.90;;;;;;5000937;28;20746;-75
2024/03/16 03:49:29;;;;;;;0.60;0.53;;;8.90;99.90;;;;;;5028528;28;20627;-75
2024/03/16 03:51:58;;;;;;;1.10;0.40;;;8.80;99.90;;;;;;5013675;28;20627;-75
2024/03/16 03:54:25;;;;;;;0.77;0.57;;;9.00;99.90;;;;;;5018085;28;21176;-75
2024/03/16 03:56:52;;;;;;;0.93;0.60;;;8.90;99.90;;;;;;5024075;28;20714;-75
2024/03/16 03:59:19;;;;;;;0.73;0.53;;;9.10;99.90;;;;;;5103079;28;20642;-74
2024/03/16 04:01:46;;;;;;;1.73;0.50;;;9.00;99.90;;;;;;5018050;28;20714;-75
2024/03/16 04:04:13;;;;;;;0.67;0.60;;;9.00;99.90;;;;;;5071977;28;21338;-74
2024/03/16 04:06:44;;;;;;;0.70;0.50;;;8.90;99.90;;;;;;5097293;28;20638;-75
2024/03/16 04:09:12;;;;;;;0.70;0.60;;;8.90;99.90;;;;;;5057277;28;20611;-75
2024/03/16 04:11:39;;;;;;;0.90;0.70;;;8.90;99.90;;;;;;5070107;28;20746;-75
2024/03/16 04:14:06;;;;;;;0.60;0.60;;;8.90;99.90;;;;;;5030097;28;20966;-75
2024/03/16 04:16:33;;;;;;;1.17;1.07;;;9.00;99.90;;;;;;5032804;28;20634;-75
2024/03/16 04:19:00;;;;;;;2.10;0.80;;;9.00;99.90;;;;;;5104324;27;20633;-75
2024/03/16 04:21:26;;;;;;;0.97;0.70;;;9.00;99.90;;;;;;5039046;27;20620;-75
2024/03/16 04:23:53;;;;;;;1.27;0.60;;;9.00;99.90;;;;;;5075565;27;20849;-75
2024/03/16 04:26:20;;;;;;;2.87;1.53;;;9.00;99.90;;;;;;5037321;27;21142;-75
2024/03/16 04:28:47;;;;;;;0.50;0.50;;;9.00;99.90;;;;;;5011383;28;20619;-75
2024/03/16 04:31:14;;;;;;;2.20;0.90;;;9.10;99.90;;;;;;5048512;27;20745;-75
2024/03/16 04:33:41;;;;;;;0.93;0.60;;;9.00;99.90;;;;;;5112012;27;20993;-75
2024/03/16 04:36:08;;;;;;;1.80;1.57;;;9.10;99.90;;;;;;5020663;28;20614;-75
2024/03/16 04:38:35;;;;;;;1.20;1.10;;;9.00;99.90;;;;;;5011325;28;20931;-75
2024/03/16 04:41:02;;;;;;;1.20;1.10;;;9.00;99.90;;;;;;5029735;28;20606;-75
2024/03/16 04:43:29;;;;;;;0.87;0.87;;;8.80;99.90;;;;;;5068288;28;20680;-74
2024/03/16 04:45:56;;;;;;;3.37;1.20;;;8.80;99.90;;;;;;5032797;28;20807;-75
2024/03/16 04:48:23;;;;;;;1.33;1.23;;;8.80;99.90;;;;;;5044014;28;20616;-75
2024/03/16 04:50:49;;;;;;;1.03;0.93;;;8.80;99.90;;;;;;5031568;27;20654;-75
2024/03/16 04:53:16;;;;;;;4.03;1.00;;;8.80;99.90;;;;;;5071043;27;20636;-75
2024/03/16 04:55:43;;;;;;;1.20;0.83;;;8.80;99.90;;;;;;5074480;27;20636;-75
2024/03/16 04:58:10;;;;;;;3.73;1.50;;;8.80;99.90;;;;;;5032651;28;20627;-75
2024/03/16 05:00:37;;;;;;;2.27;1.03;;;8.80;99.90;;;;;;5004917;28;20623;-74
2024/03/16 05:03:04;;;;;;;2.57;0.90;;;8.80;99.90;;;;;;5025845;28;20631;-75
2024/03/16 05:05:31;;;;;;;1.60;1.20;;;8.80;99.90;;;;;;5108200;27;20734;-75
2024/03/16 05:07:57;;;;;;;1.27;0.77;;;8.90;99.90;;;;;;5029316;27;20628;-75
2024/03/16 05:10:24;;;;;;;1.17;0.80;;;9.00;99.90;;;;;;5032981;27;20662;-76
2024/03/16 05:12:51;;;;;;;0.67;0.67;;;8.90;99.90;;;;;;5012764;28;21211;-75
2024/03/16 05:15:18;;;;;;;0.90;0.70;;;8.90;99.90;;;;;;5076264;27;20634;-76
2024/03/16 05:17:45;;;;;;;1.10;0.90;;;8.90;99.90;;;;;;5120216;27;20618;-75
2024/03/16 05:20:12;;;;;;;1.17;1.07;;;9.00;99.90;;;;;;5007194;28;20720;-75
2024/03/16 05:22:39;;;;;;;2.67;1.10;;;8.90;99.90;;;;;;5025924;27;20651;-76
2024/03/16 05:25:06;;;;;;;1.37;1.23;;;8.90;99.90;;;;;;5010985;28;20999;-78
2024/03/16 05:27:35;;;;;;;0.70;0.70;;;9.00;99.90;;;;;;5024432;28;20624;-78
2024/03/16 05:30:04;;;;;;;1.63;1.20;;;8.90;99.90;;;;;;5007257;28;21166;-78
2024/03/16 05:32:31;;;;;;;3.03;0.70;;;8.90;99.90;;;;;;5013368;28;20635;-80
2024/03/16 05:34:58;;;;;;;2.40;1.10;;;9.00;99.90;;;;;;5110885;27;20618;-78
2024/03/16 05:37:25;;;;;;;1.13;0.90;;;8.90;99.90;;;;;;5057456;27;20748;-71
2024/03/16 05:39:52;;;;;;;1.43;0.70;;;8.90;99.90;;;;;;5075448;28;20202;-72
2024/03/16 05:42:19;;;;;;;0.97;0.57;;;8.90;99.90;;;;;;5029498;28;21201;-73
2024/03/16 05:44:46;;;;;;;2.40;1.30;;;8.90;99.90;;;;;;5028544;28;20637;-73
2024/03/16 05:47:13;;;;;;;1.20;0.70;;;8.90;99.90;;;;;;5025874;28;20627;-73
2024/03/16 05:49:40;;;;;;;0.70;0.70;;;8.90;99.90;;;;;;5036443;28;21112;-73
2024/03/16 05:52:07;;;;;;;1.53;0.90;;;8.90;99.90;;;;;;5041852;28;20656;-73
2024/03/16 05:54:34;;;;;;;1.53;1.07;;;8.90;99.90;;;;;;5042878;27;20645;-73
2024/03/16 05:57:03;;;;;;;1.13;1.03;;;8.90;99.90;;;;;;5087282;27;20636;-73
2024/03/16 05:59:31;;;;;;;1.77;1.00;;;8.90;99.90;;;;;;5089178;28;20635;-73
2024/03/16 06:01:58;;;;;;;1.10;0.80;;;8.90;99.90;;;;;;5022246;28;20720;-72
2024/03/16 06:04:25;;;;;;;1.30;1.20;;;9.00;99.90;;;;;;5047429;28;20720;-72
2024/03/16 06:06:52;;;;;;;1.60;0.97;;;9.00;99.90;;;;;;5048844;27;20625;-72
2024/03/16 06:09:19;;;;;;;1.17;1.07;;;9.00;99.90;;;;;;5112255;27;20626;-72
2024/03/16 06:11:46;;;;;;;2.10;0.90;;;9.00;99.90;;;;;;5029176;28;20752;-73
2024/03/16 06:14:12;;;;;;;1.90;1.10;;;9.00;99.90;;;;;;5063612;28;20640;-72
2024/03/16 06:16:40;;;;;;;5.43;0.90;;;9.00;99.90;;;;;;5126232;27;20621;-72
2024/03/16 06:19:07;;;;;;;2.77;1.40;;;9.10;99.90;;;;;;5091433;28;20628;-72
2024/03/16 06:21:34;;;;;;;2.57;1.00;;;9.20;99.90;;;;;;5025497;28;20620;-73
2024/03/16 06:24:03;;;;;;;2.23;1.03;;;9.10;99.90;;;;;;5026523;28;21200;-72
2024/03/16 06:26:32;;;;;;;1.27;0.87;;;9.10;99.90;;;;;;5042199;28;20626;-73
2024/03/16 06:29:06;;;;;;;0.80;0.60;;;9.00;99.90;;;;;;5062610;27;20673;-73
2024/03/16 06:31:35;;;;;;;2.17;0.70;;;8.90;99.90;;;;;;5118917;27;20734;-73
2024/03/16 06:34:04;;;;;;;2.00;0.70;;;8.90;99.90;;;;;;5089550;28;20628;-72
2024/03/16 06:36:31;;;;;;;1.00;0.80;;;8.90;99.90;;;;;;5022193;28;20633;-72
2024/03/16 06:38:59;;;;;;;1.47;0.70;;;8.90;99.90;;;;;;5016904;28;20627;-73
2024/03/16 06:41:26;;;;;;;0.60;0.50;;;9.00;99.90;;;;;;5109346;27;20700;-73
2024/03/16 06:43:53;;;;;;;0.87;0.60;;;9.10;99.90;;;;;;5090323;28;20631;-72
2024/03/16 06:46:22;;;;;;;0.60;0.60;;;9.20;99.90;;;;;;5057008;27;20615;-73
2024/03/16 06:48:49;;;;;;;0.80;0.50;;;9.30;99.90;;;;;;5102021;27;20644;-72
2024/03/16 06:51:17;;;;;;;0.93;0.87;;;9.30;99.90;;;;;;5012181;28;20647;-73
2024/03/16 06:53:44;;;;;;;0.80;0.70;;;9.40;99.90;;;;;;5012051;28;20633;-73
2024/03/16 06:56:13;;;;;;;0.83;0.50;;;9.50;99.90;;;;;;5038217;28;20945;-72
2024/03/16 06:58:40;;;;;;;0.60;0.60;;;9.50;99.90;;;;;;5043143;28;20639;-73
2024/03/16 07:01:10;;;;;;;0.90;0.50;;;9.40;99.90;;;;;;5046547;27;20650;-73
2024/03/16 07:03:37;;;;;;;0.90;0.60;;;9.50;99.90;;;;;;5112132;28;20632;-72
2024/03/16 07:06:05;;;;;;;1.07;0.70;;;9.50;99.90;;;;;;4988873;28;21170;-73
2024/03/16 07:08:31;;;;;;;1.00;0.60;;;9.50;99.90;;;;;;5101820;27;20644;-73
2024/03/16 07:10:58;;;;;;;1.73;1.33;;;9.50;99.90;;;;;;5090297;28;20659;-73
2024/03/16 07:13:25;;;;;;;1.00;1.00;;;9.50;99.90;;;;;;5054452;28;20650;-73
2024/03/16 07:15:53;;;;;;;1.40;1.00;;;9.60;99.90;;;;;;5104934;28;20621;-73
2024/03/16 07:18:20;;;;;;;2.93;1.20;;;9.50;99.90;;;;;;5027893;28;20631;-73
2024/03/16 07:20:47;;;;;;;0.70;0.67;;;9.50;99.90;;;;;;5079367;28;20621;-73
2024/03/16 07:23:14;;;;;;;1.77;0.93;;;9.70;99.90;;;;;;5080642;28;20623;-73
2024/03/16 07:25:41;;;;;;;1.60;1.00;;;9.70;99.90;;;;;;5036193;28;20949;-73
2024/03/16 07:28:08;;;;;;;0.90;0.90;;;9.80;99.90;;;;;;5040858;28;20621;-73
2024/03/16 07:30:36;;;;;;;2.03;1.00;;;9.80;99.90;;;;;;5050776;28;20625;-73
2024/03/16 07:33:03;;;;;;;4.47;1.47;;;9.80;99.90;;;;;;5111325;28;20948;-73
2024/03/16 07:35:30;;;;;;;1.13;1.03;;;9.80;99.90;;;;;;5090099;28;20626;-73
2024/03/16 07:37:57;;;;;;;1.50;1.33;;;9.80;99.90;;;;;;5049172;28;20633;-73
2024/03/16 07:40:24;;;;;;;2.37;1.80;;;9.80;99.90;;;;;;5057725;28;21202;-73
2024/03/16 07:42:50;;;;;;;3.57;1.97;;;9.80;99.90;;;;;;5111155;28;20723;-73
2024/03/16 07:45:18;;;;;;;2.57;1.70;;;9.70;99.90;;;;;;5027532;28;21189;-73
2024/03/16 07:47:45;;;;;;;2.37;1.73;;;9.70;99.90;;;;;;5071385;28;21200;-73
2024/03/16 07:50:12;;;;;;;3.97;1.60;;;9.80;99.90;;;;;;5026906;28;20637;-73
2024/03/16 07:52:39;;;;;;;2.90;1.77;;;9.80;99.90;;;;;;5080396;28;20669;-73
2024/03/16 07:55:07;;;;;;;6.67;6.17;;;9.80;99.90;;;;;;5029298;28;20673;-72
2024/03/16 07:57:34;;;;;;;5.50;2.33;;;9.70;99.90;;;;;;5030712;28;20957;-73
2024/03/16 08:00:01;;;;;;;2.20;1.83;;;9.70;99.90;;;;;;5103959;27;20720;-72
2024/03/16 08:02:27;;;;;;;2.20;1.47;;;9.70;99.90;;;;;;5094162;28;20631;-72
2024/03/16 08:04:54;;;;;;;2.07;1.90;;;9.70;99.90;;;;;;5063196;27;21018;-72
2024/03/16 08:07:21;;;;;;;2.80;1.83;;;9.70;99.90;;;;;;5028276;28;20632;-73
2024/03/16 08:09:48;;;;;;;5.67;2.00;;;9.70;99.90;;;;;;5030955;28;20628;-72
2024/03/16 08:12:15;;;;;;;7.73;2.47;;;9.60;99.90;;;;;;5109699;27;20655;-73
2024/03/16 08:14:42;;;;;;;2.07;1.87;;;9.80;99.90;;;;;;5093975;28;20626;-73
2024/03/16 08:17:09;;;;;;;1.43;1.20;;;9.80;99.90;;;;;;5069586;27;20624;-72
2024/03/16 08:19:38;;;;;;;2.60;1.10;;;9.80;99.90;;;;;;5093337;28;21131;-73
2024/03/16 08:22:05;;;;;;;2.10;0.80;;;9.80;99.90;;;;;;5024740;28;20605;-73
2024/03/16 08:24:33;;;;;;;0.90;0.90;;;9.80;99.90;;;;;;5024562;28;20625;-73
2024/03/16 08:27:00;;;;;;;1.50;0.87;;;9.70;99.90;;;;;;5042851;28;20620;-73
2024/03/16 08:29:26;;;;;;;1.53;1.30;;;9.80;99.90;;;;;;5077989;27;20625;-73
2024/03/16 08:31:55;;;;;;;1.23;0.90;;;9.80;99.90;;;;;;5093181;28;20769;-73
2024/03/16 08:34:22;;;;;;;1.63;1.10;;;9.80;99.90;;;;;;5042165;27;20625;-74
2024/03/16 08:36:49;;;;;;;1.40;1.30;;;9.90;99.90;;;;;;5047540;28;20686;-73
2024/03/16 08:39:16;;;;;;;1.20;1.10;;;9.90;99.90;;;;;;5044122;27;20639;-73
2024/03/16 08:41:42;;;;;;;6.33;5.40;;;10.00;99.90;;;;;;5094210;27;20692;-74
2024/03/16 08:44:09;;;;;;;3.50;2.70;;;10.20;99.90;;;;;;5099593;27;20639;-73
2024/03/16 08:46:36;;;;;;;4.43;4.00;;;10.00;99.90;;;;;;5067583;27;20621;-73
2024/03/16 08:49:03;;;;;;;1.73;1.53;;;10.00;99.90;;;;;;5114052;27;21052;-73
2024/03/16 08:51:30;;;;;;;1.90;0.90;;;10.10;99.90;;;;;;5018004;28;20661;-73
2024/03/16 08:53:57;;;;;;;1.33;1.00;;;10.20;99.90;;;;;;5024825;28;20627;-73
2024/03/16 08:56:27;;;;;;;2.10;1.20;;;10.30;99.90;;;;;;5070410;27;20716;-73
2024/03/16 08:58:54;;;;;;;2.20;1.30;;;10.20;99.90;;;;;;5090576;28;20654;-73
2024/03/16 09:01:21;;;;;;;0.83;0.60;;;10.20;99.90;;;;;;5024421;28;20717;-73
2024/03/16 09:03:48;;;;;;;3.37;2.57;;;10.40;99.90;;;;;;5029108;28;20796;-73
2024/03/16 09:06:15;;;;;;;1.57;0.70;;;10.50;99.90;;;;;;5076980;28;20630;-73
2024/03/16 09:08:42;;;;;;;1.27;0.87;;;10.60;99.90;;;;;;5078090;27;21158;-73
2024/03/16 09:11:09;;;;;;;1.53;1.17;;;10.60;99.90;;;;;;5093146;28;20623;-73
2024/03/16 09:13:36;;;;;;;1.23;0.93;;;10.50;99.90;;;;;;5027609;28;20628;-73
2024/03/16 09:16:05;;;;;;;0.50;0.40;;;10.50;99.90;;;;;;5029520;28;20742;-73
2024/03/16 09:18:32;;;;;;;2.10;0.77;;;10.50;99.90;;;;;;5105404;27;20617;-73
2024/03/16 09:20:59;;;;;;;1.73;0.93;;;10.40;99.90;;;;;;5092258;28;21194;-73
2024/03/16 09:23:26;;;;;;;0.60;0.60;;;10.40;99.90;;;;;;5066223;27;20633;-73
2024/03/16 09:25:56;;;;;;;2.47;0.43;;;10.50;99.90;;;;;;5025712;28;20727;-73
2024/03/16 09:28:23;;;;;;;0.70;0.60;;;10.40;99.90;;;;;;5029125;28;20639;-73
2024/03/16 09:30:50;;;;;;;1.67;0.93;;;10.50;99.90;;;;;;5091966;28;21189;-73
2024/03/16 09:33:17;;;;;;;0.83;0.77;;;10.60;99.90;;;;;;5089142;27;20749;-73
2024/03/16 09:35:43;;;;;;;0.60;0.50;;;10.70;99.90;;;;;;5107924;27;21232;-73
2024/03/16 09:38:12;;;;;;;2.33;1.17;;;10.60;99.90;;;;;;5084606;28;20737;-74
2024/03/16 09:40:42;;;;;;;1.00;0.90;;;10.80;99.90;;;;;;5027356;28;20675;-73
2024/03/16 09:43:09;;;;;;;0.60;0.50;;;10.70;99.90;;;;;;5030036;28;20671;-73
2024/03/16 09:45:36;;;;;;;5.70;0.93;;;10.90;99.90;;;;;;5102712;27;20630;-73
2024/03/16 09:48:03;;;;;;;0.97;0.93;;;11.00;99.90;;;;;;5091767;28;20629;-73
2024/03/16 09:50:31;;;;;;;1.10;0.70;;;11.20;99.90;;;;;;5027133;28;20978;-73
2024/03/16 09:52:58;;;;;;;1.83;1.30;;;11.30;99.90;;;;;;5023985;28;20641;-73
2024/03/16 09:55:27;;;;;;;3.27;1.13;;;11.40;99.90;;;;;;5015293;28;20620;-73
2024/03/16 09:57:54;;;;;;;3.27;1.23;;;11.40;99.90;;;;;;5021866;28;21056;-73
2024/03/16 10:00:22;;;;;;;1.13;1.07;;;11.50;99.90;;;;;;5032401;27;21574;-73
2024/03/16 10:02:49;;;;;;;1.20;1.10;;;11.70;99.90;;;;;;5109359;27;20979;-73
2024/03/16 10:05:17;;;;;;;3.63;1.43;;;11.70;99.90;;;;;;5021149;28;20631;-73
2024/03/16 10:07:46;;;;;;;1.87;0.83;;;11.70;99.90;;;;;;5016202;28;20627;-73
2024/03/16 10:10:17;;;;;;;3.03;1.37;;;11.70;99.90;;;;;;5001568;28;21060;-73
2024/03/16 10:12:44;;;;;;;1.30;1.00;;;11.80;99.90;;;;;;5100344;27;20647;-73
2024/03/16 10:15:15;;;;;;;1.70;0.97;;;11.90;99.90;;;;;;5106655;27;20627;-73
2024/03/16 10:17:42;;;;;;;0.80;0.60;;;12.00;99.90;;;;;;5101153;27;20666;-73
2024/03/16 10:20:15;;;;;;;1.43;0.90;;;12.00;99.90;;;;;;5025118;27;21308;-73
2024/03/16 10:22:43;;;;;;;0.80;0.60;;;11.80;99.90;;;;;;5028279;28;20674;-73
2024/03/16 10:25:10;;;;;;;2.33;1.00;;;11.70;99.90;;;;;;5017962;28;20620;-73
2024/03/16 10:27:42;;;;;;;2.53;2.20;;;11.40;99.90;;;;;;5023136;27;20635;-72
2024/03/16 10:30:11;;;;;;;1.60;1.10;;;11.40;99.90;;;;;;5018958;28;20675;-73
2024/03/16 10:32:38;;;;;;;0.80;0.73;;;11.50;99.90;;;;;;5018089;28;20658;-73
2024/03/16 10:35:07;;;;;;;1.70;0.80;;;11.40;99.90;;;;;;5027204;28;20967;-73
2024/03/16 10:37:35;;;;;;;0.30;0.30;;;11.50;99.90;;;;;;5028327;28;20730;-73
2024/03/16 10:40:13;;;;;;;2.30;2.10;;;11.50;99.90;;;;;;5121581;27;20715;-73
2024/03/16 10:42:42;;;;;;;2.00;1.73;;;11.50;99.90;;;;;;5083527;28;20628;-73
2024/03/16 10:45:13;;;;;;;0.47;0.30;;;11.60;99.90;;;;;;5074007;27;20621;-73
2024/03/16 10:47:42;;;;;;;0.50;0.33;;;11.40;99.90;;;;;;5087738;28;20635;-73
2024/03/16 10:50:10;;;;;;;0.47;0.40;;;11.40;99.90;;;;;;5023993;28;20611;-73
2024/03/16 10:52:38;;;;;;;0.50;0.50;;;11.30;99.90;;;;;;5022914;28;20663;-73
2024/03/16 10:55:07;;;;;;;0.70;0.40;;;11.40;99.90;;;;;;5042962;28;20660;-72
2024/03/16 10:57:37;;;;;;;0.50;0.43;;;11.30;99.90;;;;;;5063226;28;20627;-73
2024/03/16 11:00:12;;;;;;;0.97;0.50;;;11.40;99.90;;;;;;5068108;27;20645;-73
2024/03/16 11:02:49;;;;;;;0.70;0.40;;;11.60;99.90;;;;;;5086028;28;20620;-73
2024/03/16 11:05:33;;;;;;;0.60;0.43;;;11.60;99.90;;;;;;5026448;28;20626;-73
2024/03/16 11:08:00;;;;;;;1.00;0.43;;;11.60;99.90;;;;;;5028862;28;21027;-73
2024/03/16 11:10:40;;;;;;;0.40;0.37;;;11.60;99.90;;;;;;5111731;27;21384;-73
2024/03/16 11:13:19;;;;;;;0.97;0.77;;;11.50;99.90;;;;;;5090879;28;20663;-73
2024/03/16 11:15:45;;;;;;;0.90;0.50;;;11.50;99.90;;;;;;5089191;28;20631;-73
2024/03/16 11:18:52;;;;;;;0.93;0.57;;;11.50;99.90;;;;;;5090680;28;20732;-73
2024/03/16 11:21:20;;;;;;;0.73;0.43;;;11.60;99.90;;;;;;5027287;28;20643;-73
2024/03/16 11:23:48;;;;;;;1.23;0.97;;;11.70;99.90;;;;;;5031627;28;20721;-73
2024/03/16 11:26:31;;;;;;;0.90;0.47;;;11.80;99.90;;;;;;5027303;28;20925;-73
2024/03/16 11:29:04;;;;;;;0.53;0.53;;;11.90;99.90;;;;;;5040264;27;20658;-73
2024/03/16 11:31:33;;;;;;;0.53;0.40;;;12.00;99.90;;;;;;5073530;27;20706;-73
2024/03/16 11:34:01;;;;;;;0.70;0.50;;;12.10;99.90;;;;;;5109961;27;21190;-73
2024/03/16 11:36:29;;;;;;;0.90;0.90;;;12.20;99.90;;;;;;5092613;28;20715;-73
2024/03/16 11:38:55;;;;;;;0.40;0.30;;;12.30;99.90;;;;;;5019434;28;21165;-73
2024/03/16 11:41:22;;;;;;;0.60;0.50;;;12.50;99.90;;;;;;5028409;28;20664;-73
2024/03/16 11:43:48;;;;;;;0.60;0.60;;;12.60;99.90;;;;;;5031516;28;20617;-73
2024/03/16 11:46:17;;;;;;;0.93;0.73;;;12.70;99.90;;;;;;5104187;27;20621;-73
2024/03/16 11:48:43;;;;;;;0.60;0.60;;;12.60;99.90;;;;;;5092992;28;20628;-73
2024/03/16 11:51:11;;;;;;;0.83;0.60;;;12.60;99.90;;;;;;5023505;28;20625;-73
2024/03/16 11:53:38;;;;;;;0.60;0.60;;;12.60;99.90;;;;;;5020366;28;20755;-73
2024/03/16 11:56:07;;;;;;;0.77;0.60;;;12.70;99.90;;;;;;5031429;28;20669;-73
2024/03/16 11:58:33;;;;;;;0.80;0.70;;;12.90;99.90;;;;;;5093260;27;20627;-73
2024/03/16 12:01:00;;;;;;;1.17;0.70;;;12.90;99.90;;;;;;5031746;28;20625;-73
2024/03/16 12:03:27;;;;;;;0.60;0.50;;;12.90;99.90;;;;;;5038311;28;20712;-72
2024/03/16 12:05:54;;;;;;;1.67;0.63;;;12.90;99.90;;;;;;5040428;27;20733;-72
2024/03/16 12:08:20;;;;;;;1.27;0.70;;;13.00;99.90;;;;;;5026765;28;20970;-72
2024/03/16 12:10:47;;;;;;;1.03;0.50;;;13.00;99.90;;;;;;5031726;28;20628;-72
2024/03/16 12:13:13;;;;;;;2.70;0.80;;;12.80;99.20;;;;;;5041129;28;21001;-72
2024/03/16 12:15:40;;;;;;;0.60;0.53;;;12.60;99.40;;;;;;5036745;28;20643;-72
2024/03/16 12:18:06;;;;;;;0.73;0.60;;;12.60;99.90;;;;;;5028220;28;20628;-72
2024/03/16 12:20:33;;;;;;;0.80;0.80;;;12.80;99.90;;;;;;5114693;27;20713;-73
2024/03/16 12:22:59;;;;;;;0.60;0.60;;;13.00;99.90;;;;;;5052697;27;20979;-72
2024/03/16 12:25:26;;;;;;;0.60;0.60;;;13.10;99.80;;;;;;5043537;27;20624;-71
2024/03/16 12:27:52;;;;;;;1.50;0.77;;;13.10;99.60;;;;;;5055055;27;20640;-72
2024/03/16 12:30:20;;;;;;;0.60;0.60;;;13.00;99.60;;;;;;5043376;27;20618;-72
2024/03/16 12:32:47;;;;;;;1.87;1.00;;;12.90;99.90;;;;;;5025331;27;20660;-72
2024/03/16 12:35:14;;;;;;;0.67;0.67;;;12.70;99.90;;;;;;5053920;27;20608;-72
2024/03/16 12:37:40;;;;;;;0.60;0.60;;;12.60;99.90;;;;;;5036259;28;20634;-72
2024/03/16 12:40:08;;;;;;;0.70;0.70;;;12.60;99.60;;;;;;5056874;28;20645;-72
2024/03/16 12:42:34;;;;;;;0.70;0.57;;;12.50;99.30;;;;;;5046798;28;20616;-72
2024/03/16 12:45:01;;;;;;;1.00;0.90;;;12.40;99.60;;;;;;5047401;27;20608;-73
2024/03/16 12:47:27;;;;;;;0.70;0.70;;;12.50;99.50;;;;;;5033644;28;21088;-73
2024/03/16 12:49:54;;;;;;;1.27;0.50;;;12.60;99.80;;;;;;5028164;28;20716;-73
2024/03/16 12:52:23;;;;;;;1.33;0.70;;;12.60;99.10;;;;;;5033602;28;20628;-73
2024/03/16 12:54:50;;;;;;;1.10;1.00;;;12.50;99.00;;;;;;5038262;28;20762;-73